Time;durP1;ratioP1;P1;durP2;ratioP2;P2;SDS_P1;SDS_P2;PMS_P1;PMS_P2;Temp;Humidity;BMP_temperature;BMP_pressure;BME280_temperature;BME280_humidity;BME280_pressure;Samples;Min_cycle;Max_cycle;Signal;HPM_P1;HPM_P2
2022/04/23 00:02:00;;;;;;;;;;;12.10;99.90;;;;;;5068734;28;20290;-69
2022/04/23 00:04:28;;;;;;;;;;;12.10;99.90;;;;;;5079985;28;19928;-68
2022/04/23 00:06:55;;;;;;;;;;;12.10;99.90;;;;;;5075037;28;19924;-70
2022/04/23 00:09:21;;;;;;;;;;;12.10;99.90;;;;;;5077713;28;20053;-69
2022/04/23 00:11:48;;;;;;;;;;;12.00;99.90;;;;;;5081698;28;20471;-68
2022/04/23 00:14:14;;;;;;;;;;;12.00;99.90;;;;;;5086529;28;19924;-69
2022/04/23 00:16:41;;;;;;;;;;;12.00;99.90;;;;;;5073544;28;19928;-69
2022/04/23 00:19:09;;;;;;;;;;;11.90;99.90;;;;;;5069130;28;19994;-68
2022/04/23 00:21:35;;;;;;;;;;;11.90;99.90;;;;;;5086039;28;19924;-68
2022/04/23 00:24:03;;;;;;;;;;;11.80;99.90;;;;;;5096281;28;19932;-69
2022/04/23 00:26:30;;;;;;;;;;;11.80;99.90;;;;;;5076617;28;19924;-69
2022/04/23 00:28:56;;;;;;;;;;;11.80;99.90;;;;;;5088489;28;19927;-68
2022/04/23 00:31:24;;;;;;;;;;;11.70;99.90;;;;;;5077909;28;19978;-70
2022/04/23 00:33:51;;;;;;;;;;;11.60;99.90;;;;;;5086588;28;19924;-69
2022/04/23 00:36:23;;;;;;;;;;;11.60;99.90;;;;;;5077276;28;20452;-69
2022/04/23 00:38:52;;;;;;;;;;;11.60;99.90;;;;;;5085758;28;19932;-70
2022/04/23 00:44:00;;;;;;;;;;;11.60;99.90;;;;;;5080860;28;20404;-68
2022/04/23 00:46:26;;;;;;;;;;;11.50;99.90;;;;;;5071923;28;19985;-69
2022/04/23 00:48:53;;;;;;;;;;;11.50;99.90;;;;;;5084540;28;19935;-70
2022/04/23 00:51:21;;;;;;;;;;;11.50;99.90;;;;;;5077747;28;19932;-69
2022/04/23 00:53:48;;;;;;;;;;;11.50;99.90;;;;;;5076477;28;20004;-69
2022/04/23 00:56:14;;;;;;;;;;;11.40;99.90;;;;;;5081864;28;19925;-68
2022/04/23 00:58:41;;;;;;;;;;;11.40;99.90;;;;;;5078030;28;19985;-70
2022/04/23 01:01:08;;;;;;;;;;;11.30;99.90;;;;;;5089128;28;19935;-69
2022/04/23 01:03:36;;;;;;;;;;;11.30;99.90;;;;;;5072480;28;19924;-69
2022/04/23 01:06:03;;;;;;;;;;;11.30;99.90;;;;;;5072030;28;20287;-69
2022/04/23 01:08:31;;;;;;;;;;;11.30;99.90;;;;;;5075130;28;19951;-70
2022/04/23 01:10:58;;;;;;;;;;;11.20;99.90;;;;;;5084444;28;19983;-69
2022/04/23 01:13:25;;;;;;;;;;;11.20;99.90;;;;;;5083135;28;19932;-69
2022/04/23 01:15:59;;;;;;;;;;;11.20;99.90;;;;;;5079835;28;20398;-69
2022/04/23 01:18:26;;;;;;;;;;;11.20;99.90;;;;;;5082435;28;19931;-69
2022/04/23 01:20:53;;;;;;;;;;;11.10;99.90;;;;;;5079840;28;19925;-71
2022/04/23 01:23:20;;;;;;;;;;;11.10;99.90;;;;;;5086326;28;19972;-70
2022/04/23 01:25:49;;;;;;;;;;;11.10;99.90;;;;;;5074553;28;19930;-69
2022/04/23 01:28:17;;;;;;;;;;;11.00;99.90;;;;;;5084660;28;19973;-69
2022/04/23 01:30:44;;;;;;;;;;;11.00;99.90;;;;;;5083798;28;19954;-71
2022/04/23 01:33:10;;;;;;;;;;;11.00;99.90;;;;;;5083888;28;19924;-69
2022/04/23 01:35:37;;;;;;;;;;;10.90;99.90;;;;;;5077324;28;19932;-69
2022/04/23 01:38:04;;;;;;;;;;;10.90;99.90;;;;;;5083107;28;20386;-69
2022/04/23 01:40:31;;;;;;;;;;;10.90;99.90;;;;;;5082165;28;19928;-70
2022/04/23 01:42:58;;;;;;;;;;;10.80;99.90;;;;;;5070850;28;19925;-68
2022/04/23 01:45:25;;;;;;;;;;;10.80;99.90;;;;;;5070897;28;20023;-68
2022/04/23 01:47:52;;;;;;;;;;;10.80;99.90;;;;;;5076267;28;19935;-68
2022/04/23 01:50:18;;;;;;;;;;;10.70;99.90;;;;;;5072179;28;19978;-70
2022/04/23 01:52:46;;;;;;;;;;;10.80;99.90;;;;;;5084125;28;19981;-69
2022/04/23 01:55:14;;;;;;;;;;;10.70;99.90;;;;;;5083089;28;20389;-70
2022/04/23 01:57:41;;;;;;;;;;;10.70;99.90;;;;;;5077613;28;19924;-70
2022/04/23 02:00:08;;;;;;;;;;;10.70;99.90;;;;;;5087975;28;19924;-69
2022/04/23 02:02:36;;;;;;;;;;;10.70;99.90;;;;;;5077519;28;19928;-70
2022/04/23 02:05:03;;;;;;;;;;;10.70;99.90;;;;;;5086312;28;20042;-69
2022/04/23 02:07:30;;;;;;;;;;;10.60;99.90;;;;;;5084890;28;19977;-69
2022/04/23 02:09:56;;;;;;;;;;;10.60;99.90;;;;;;5074623;28;19928;-69
2022/04/23 02:12:24;;;;;;;;;;;10.60;99.90;;;;;;5070132;28;19928;-69
2022/04/23 02:14:51;;;;;;;;;;;10.60;99.90;;;;;;5086572;28;20548;-68
2022/04/23 02:17:18;;;;;;;;;;;10.60;99.90;;;;;;5083886;28;20386;-70
2022/04/23 02:19:44;;;;;;;;;;;10.60;99.90;;;;;;5086510;28;19925;-69
2022/04/23 02:22:11;;;;;;;;;;;10.60;99.90;;;;;;5079937;28;20455;-69
2022/04/23 02:24:37;;;;;;;;;;;10.50;99.90;;;;;;5076431;28;19977;-68
2022/04/23 02:27:04;;;;;;;;;;;10.50;99.90;;;;;;5081948;28;20297;-68
2022/04/23 02:29:32;;;;;;;;;;;10.50;99.90;;;;;;5089401;28;19932;-70
2022/04/23 02:31:58;;;;;;;;;;;10.50;99.90;;;;;;5089839;28;20451;-68
2022/04/23 02:34:25;;;;;;;;;;;10.50;99.90;;;;;;5083771;28;19981;-68
2022/04/23 02:36:51;;;;;;;;;;;10.50;99.90;;;;;;5079934;28;20501;-69
2022/04/23 02:39:18;;;;;;;;;;;10.50;99.90;;;;;;5086461;28;19932;-69
2022/04/23 02:41:44;;;;;;;;;;;10.50;99.90;;;;;;5074616;28;19983;-68
2022/04/23 02:44:13;;;;;;;;;;;10.50;99.90;;;;;;5086800;28;19969;-69
2022/04/23 02:46:42;;;;;;;;;;;10.50;99.90;;;;;;5079027;28;19929;-69
2022/04/23 02:49:09;;;;;;;;;;;10.50;99.90;;;;;;5074939;28;19932;-70
2022/04/23 02:51:36;;;;;;;;;;;10.50;99.90;;;;;;5086861;28;19932;-69
2022/04/23 02:54:02;;;;;;;;;;;10.40;99.90;;;;;;5071284;28;19978;-69
2022/04/23 02:56:33;;;;;;;;;;;10.40;99.90;;;;;;5069638;28;19925;-70
2022/04/23 02:59:02;;;;;;;;;;;10.40;99.90;;;;;;5072815;28;19931;-69
2022/04/23 03:01:29;;;;;;;;;;;10.40;99.90;;;;;;5076257;28;19951;-70
2022/04/23 03:03:58;;;;;;;;;;;10.40;99.90;;;;;;5085583;28;19924;-70
2022/04/23 03:06:28;;;;;;;;;;;10.30;99.90;;;;;;5084342;28;19932;-70
2022/04/23 03:08:55;;;;;;;;;;;10.40;99.90;;;;;;5077666;28;20047;-70
2022/04/23 03:11:22;;;;;;;;;;;10.30;99.90;;;;;;5083127;28;20005;-69
2022/04/23 03:13:48;;;;;;;;;;;10.30;99.90;;;;;;5077664;28;20444;-70
2022/04/23 03:16:15;;;;;;;;;;;10.30;99.90;;;;;;5082288;28;19935;-70
2022/04/23 03:18:41;;;;;;;;;;;10.30;99.90;;;;;;5089415;28;19928;-69
2022/04/23 03:21:09;;;;;;;;;;;10.20;99.90;;;;;;5088910;28;19928;-69
2022/04/23 03:23:36;;;;;;;;;;;10.20;99.90;;;;;;5075468;28;19932;-68
2022/04/23 03:26:03;;;;;;;;;;;10.20;99.90;;;;;;5071563;28;19963;-69
2022/04/23 03:28:29;;;;;;;;;;;10.10;99.90;;;;;;5069514;28;19954;-69
2022/04/23 03:30:56;;;;;;;;;;;10.10;99.90;;;;;;5077035;28;19924;-70
2022/04/23 03:33:23;;;;;;;;;;;10.10;99.90;;;;;;5080806;28;20019;-69
2022/04/23 03:35:49;;;;;;;;;;;10.10;99.90;;;;;;5082116;28;19954;-70
2022/04/23 03:38:17;;;;;;;;;;;10.10;99.90;;;;;;5077831;28;19973;-69
2022/04/23 03:40:44;;;;;;;;;;;10.00;99.90;;;;;;5085770;28;20331;-69
2022/04/23 03:43:10;;;;;;;;;;;10.00;99.90;;;;;;5085122;28;20001;-69
2022/04/23 03:45:37;;;;;;;;;;;9.90;99.90;;;;;;5082324;28;19927;-69
2022/04/23 03:48:04;;;;;;;;;;;10.00;99.90;;;;;;5084663;28;19931;-68
2022/04/23 03:50:32;;;;;;;;;;;9.90;99.90;;;;;;5077867;28;20307;-71
2022/04/23 03:52:59;;;;;;;;;;;9.90;99.90;;;;;;5068917;28;19934;-70
2022/04/23 03:55:27;;;;;;;;;;;9.90;99.90;;;;;;5069010;28;19924;-70
2022/04/23 03:57:54;;;;;;;;;;;9.90;99.90;;;;;;5080810;28;20632;-70
2022/04/23 04:00:21;;;;;;;;;;;9.90;99.90;;;;;;5080583;28;19928;-70
2022/04/23 04:02:48;;;;;;;;;;;9.80;99.90;;;;;;5084073;28;19924;-70
2022/04/23 04:05:14;;;;;;;;;;;9.80;99.90;;;;;;5082561;28;19978;-69
2022/04/23 04:07:41;;;;;;;;;;;9.80;99.90;;;;;;5068963;28;20382;-68
2022/04/23 04:10:09;;;;;;;;;;;9.70;99.90;;;;;;5083482;28;19924;-71
2022/04/23 04:12:37;;;;;;;;;;;9.70;99.90;;;;;;5084475;28;20010;-68
2022/04/23 04:15:05;;;;;;;;;;;9.70;99.90;;;;;;5086084;28;19928;-71
2022/04/23 04:17:31;;;;;;;;;;;9.70;99.90;;;;;;5072469;28;20395;-69
2022/04/23 04:19:59;;;;;;;;;;;9.60;99.90;;;;;;5085626;28;19924;-68
2022/04/23 04:22:25;;;;;;;;;;;9.60;99.90;;;;;;5085386;28;19982;-70
2022/04/23 04:24:52;;;;;;;;;;;9.60;99.90;;;;;;5079510;28;20402;-69
2022/04/23 04:27:19;;;;;;;;;;;9.60;99.90;;;;;;5090624;28;19927;-69
2022/04/23 04:29:47;;;;;;;6.80;6.20;;;9.60;99.90;;;;;;5080065;28;19933;-69
2022/04/23 04:32:13;;;;;;;7.87;7.07;;;9.50;99.90;;;;;;5079009;28;20459;-69
2022/04/23 04:34:40;;;;;;;9.30;8.33;;;9.50;99.90;;;;;;5082743;28;20457;-69
2022/04/23 04:37:08;;;;;;;8.70;7.80;;;9.50;99.90;;;;;;5086171;28;20561;-71
2022/04/23 04:39:36;;;;;;;10.97;8.40;;;9.50;99.90;;;;;;5074825;28;20455;-69
2022/04/23 04:42:03;;;;;;;10.77;9.07;;;9.50;99.90;;;;;;5075371;28;20491;-69
2022/04/23 04:44:30;;;;;;;10.10;8.50;;;9.50;99.90;;;;;;5085604;28;20515;-68
2022/04/23 04:46:58;;;;;;;9.45;8.52;;;9.50;99.90;;;;;;5083977;28;20461;-69
2022/04/23 04:49:25;;;;;;;9.73;8.83;;;9.50;99.90;;;;;;5082935;28;20242;-70
2022/04/23 04:51:53;;;;;;;10.50;8.07;;;9.60;99.90;;;;;;5078619;28;20553;-69
2022/04/23 04:54:21;;;;;;;10.20;9.17;;;9.60;99.90;;;;;;5090383;28;20797;-69
2022/04/23 04:56:48;;;;;;;10.40;8.07;;;9.60;99.90;;;;;;5083275;28;20481;-70
2022/04/23 04:59:14;;;;;;;9.70;8.53;;;9.70;99.90;;;;;;5079750;28;20485;-69
2022/04/23 05:01:41;;;;;;;;;;;9.70;99.90;;;;;;5070990;28;20490;-70
2022/04/23 05:04:09;;;;;;;;;;;9.70;99.90;;;;;;5072055;28;19929;-70
2022/04/23 05:06:36;;;;;;;;;;;9.70;99.90;;;;;;5078100;28;19986;-69
2022/04/23 05:09:02;;;;;;;;;;;9.80;99.90;;;;;;5082831;28;20360;-70
2022/04/23 05:11:29;;;;;;;;;;;9.80;99.90;;;;;;5082416;28;19932;-69
2022/04/23 05:13:56;;;;;;;;;;;9.80;99.90;;;;;;5082912;28;19924;-70
2022/04/23 05:16:22;;;;;;;;;;;9.80;99.90;;;;;;5091508;28;20394;-69
2022/04/23 05:18:49;;;;;;;;;;;9.90;99.90;;;;;;5090963;28;19928;-69
2022/04/23 05:21:17;;;;;;;;;;;9.90;99.90;;;;;;5076363;28;20672;-69
2022/04/23 05:23:43;;;;;;;;;;;9.90;99.90;;;;;;5074830;28;19932;-70
2022/04/23 05:26:10;;;;;;;;;;;10.00;99.90;;;;;;5077417;28;20125;-70
2022/04/23 05:28:36;;;;;;;;;;;10.00;99.90;;;;;;5075356;28;20031;-70
2022/04/23 05:31:03;;;;;;;;;;;10.00;99.90;;;;;;5086065;28;19932;-70
2022/04/23 05:33:30;;;;;;;;;;;10.10;99.90;;;;;;5090349;28;19939;-71
2022/04/23 05:35:56;;;;;;;;;;;10.10;99.90;;;;;;5079792;28;19928;-70
2022/04/23 05:38:24;;;;;;;;;;;10.20;99.90;;;;;;5090100;28;19928;-70
2022/04/23 05:40:51;;;;;;;;;;;10.20;99.90;;;;;;5073041;28;19932;-70
2022/04/23 05:43:18;;;;;;;;;;;10.30;99.90;;;;;;5072291;28;19935;-69
2022/04/23 05:45:44;;;;;;;;;;;10.40;99.90;;;;;;5078333;28;19924;-70
2022/04/23 05:48:11;;;;;;;;;;;10.40;99.90;;;;;;5080391;28;19940;-69
2022/04/23 05:50:37;;;;;;;;;;;10.40;99.90;;;;;;5082435;28;19973;-69
2022/04/23 05:53:04;;;;;;;;;;;10.50;99.90;;;;;;5075424;28;19924;-69
2022/04/23 05:55:32;;;;;;;;;;;10.50;99.90;;;;;;5079310;28;19928;-69
2022/04/23 05:57:58;;;;;;;;;;;10.60;99.90;;;;;;5087450;28;19972;-70
2022/04/23 06:00:25;;;;;;;;;;;10.60;99.90;;;;;;5081827;28;19939;-68
2022/04/23 06:02:52;;;;;;;;;;;10.70;99.90;;;;;;5077612;28;19939;-70
2022/04/23 06:05:18;;;;;;;;;;;10.70;99.90;;;;;;5084511;28;19932;-68
2022/04/23 06:07:45;;;;;;;;;;;10.80;99.90;;;;;;5089947;28;19925;-69
2022/04/23 06:10:11;;;;;;;;;;;10.90;99.90;;;;;;5083121;28;20450;-70
2022/04/23 06:12:39;;;;;;;;;;;11.00;99.90;;;;;;5082813;28;20003;-70
2022/04/23 06:15:06;;;;;;;;;;;11.00;99.90;;;;;;5085801;28;19931;-71
2022/04/23 06:17:33;;;;;;;;;;;11.10;99.90;;;;;;5080445;28;19981;-72
2022/04/23 06:20:00;;;;;;;;;;;11.20;99.90;;;;;;5081633;28;19931;-68
2022/04/23 06:22:27;;;;;;;;;;;11.20;99.90;;;;;;5083064;28;19939;-67
2022/04/23 06:24:53;;;;;;;;;;;11.30;99.90;;;;;;5080711;28;19928;-68
2022/04/23 06:27:20;;;;;;;;;;;11.40;99.90;;;;;;5080055;28;19928;-68
2022/04/23 06:29:47;;;;;;;;;;;11.50;99.90;;;;;;5081955;28;19924;-68
2022/04/23 06:32:14;;;;;;;;;;;11.60;99.90;;;;;;5084509;28;20348;-68
2022/04/23 06:34:41;;;;;;;;;;;11.70;99.90;;;;;;5079017;28;19924;-68
2022/04/23 06:37:07;;;;;;;;;;;11.80;99.90;;;;;;5081865;28;19924;-68
2022/04/23 06:39:34;;;;;;;;;;;11.90;99.90;;;;;;5079839;28;19932;-71
2022/04/23 06:42:00;;;;;;;;;;;12.00;99.90;;;;;;5081329;28;19924;-68
2022/04/23 06:44:27;;;;;;;;;;;12.10;99.90;;;;;;5080685;28;19969;-69
2022/04/23 06:46:55;;;;;;;;;;;12.10;99.90;;;;;;5081529;28;19932;-68
2022/04/23 06:49:23;;;;;;;;;;;12.20;99.90;;;;;;5072965;28;19932;-69
2022/04/23 06:51:50;;;;;;;;;;;12.40;99.90;;;;;;5083414;28;19928;-68
2022/04/23 06:54:16;;;;;;;;;;;12.50;99.90;;;;;;5078981;28;19928;-69
2022/04/23 06:56:43;;;;;;;;;;;12.70;99.90;;;;;;5115210;22;19927;-70
2022/04/23 06:59:09;;;;;;;;;;;12.80;99.90;;;;;;5126675;27;20526;-76
2022/04/23 07:01:36;;;;;;;;;;;12.90;99.90;;;;;;5120244;27;20380;-70
2022/04/23 07:04:04;;;;;;;;;;;13.10;99.90;;;;;;5120852;27;19934;-68
2022/04/23 07:06:30;;;;;;;;;;;13.30;99.90;;;;;;5117423;27;19939;-68
2022/04/23 07:08:57;;;;;;;;;;;13.40;99.90;;;;;;5122008;27;19972;-69
2022/04/23 07:11:24;;;;;;;;;;;13.60;99.90;;;;;;5124101;27;19928;-69
2022/04/23 07:13:50;;;;;;;;;;;13.70;99.90;;;;;;5122276;27;19967;-71
2022/04/23 07:16:17;;;;;;;;;;;13.90;99.90;;;;;;5124575;27;19987;-70
2022/04/23 07:18:44;;;;;;;;;;;14.00;99.90;;;;;;5120059;27;20006;-70
2022/04/23 07:21:12;;;;;;;;;;;14.10;99.90;;;;;;5119584;27;19980;-70
2022/04/23 07:26:23;;;;;;;;;;;14.30;99.90;;;;;;5118481;28;19927;-70
2022/04/23 07:28:50;;;;;;;;;;;14.40;99.90;;;;;;5121553;28;20036;-70
2022/04/23 07:31:16;;;;;;;;;;;14.40;99.90;;;;;;5124286;28;19935;-71
2022/04/23 07:39:12;;;;;;;;;;;14.70;99.90;;;;;;5118978;28;19954;-71
2022/04/23 07:41:39;;;;;;;;;;;14.80;99.90;;;;;;5122957;28;20026;-71
2022/04/23 07:44:06;;;;;;;;;;;14.90;99.90;;;;;;5119675;27;19955;-72
2022/04/23 07:46:32;;;;;;;;;;;15.00;99.90;;;;;;5119445;27;20304;-71
2022/04/23 07:48:59;;;;;;;;;;;15.10;99.90;;;;;;5116024;27;20014;-71
2022/04/23 07:51:27;;;;;;;;;;;15.30;99.90;;;;;;5123947;27;19951;-71
2022/04/23 07:53:55;;;;;;;;;;;15.50;99.90;;;;;;5128895;27;19995;-70
2022/04/23 07:56:21;;;;;;;;;;;15.60;99.90;;;;;;5126576;27;19943;-71
2022/04/23 07:58:48;;;;;;;;;;;15.60;99.90;;;;;;5121643;27;19932;-69
2022/04/23 08:01:14;;;;;;;;;;;15.70;99.90;;;;;;5121345;27;19931;-68
2022/04/23 08:03:42;;;;;;;;;;;15.80;99.90;;;;;;5129719;27;19930;-69
2022/04/23 08:06:10;;;;;;;;;;;16.00;99.90;;;;;;5134547;27;20026;-68
2022/04/23 08:08:36;;;;;;;;;;;16.10;99.90;;;;;;5131396;27;20030;-70
2022/04/23 08:11:04;;;;;;;;;;;16.10;99.90;;;;;;5122799;27;19935;-68
2022/04/23 08:13:32;;;;;;;;;;;16.30;99.90;;;;;;5125696;27;19924;-69
2022/04/23 08:15:59;;;;;;;;;;;16.50;99.90;;;;;;5114886;27;20030;-68
2022/04/23 08:18:26;;;;;;;;;;;16.60;99.90;;;;;;5121683;27;19950;-68
2022/04/23 08:20:53;;;;;;;;;;;16.70;99.90;;;;;;5120637;27;20071;-68
2022/04/23 08:23:19;;;;;;;;;;;16.70;99.90;;;;;;5123671;27;19935;-69
2022/04/23 08:25:46;;;;;;;;;;;16.80;99.90;;;;;;5119343;27;19927;-69
2022/04/23 08:30:58;;;;;;;;;;;17.20;99.90;;;;;;5122323;27;20114;-69
2022/04/23 08:33:57;;;;;;;;;;;17.40;99.90;;;;;;5120393;27;19932;-69
2022/04/23 08:36:11;;;;;;;;;;;17.50;99.90;;;;;;5129189;27;19923;-68
2022/04/23 08:38:38;;;;;;;;;;;17.60;99.90;;;;;;5124634;27;20707;-69
2022/04/23 08:41:05;;;;;;;;;;;17.60;99.90;;;;;;5121627;27;21323;-69
2022/04/23 08:43:33;;;;;;;;;;;17.70;99.90;;;;;;5125882;27;19991;-69
2022/04/23 08:46:02;;;;;;;;;;;17.70;99.90;;;;;;5122999;27;19939;-69
2022/04/23 08:48:34;;;;;;;;;;;17.70;99.90;;;;;;5127781;27;20292;-69
2022/04/23 08:51:01;;;;;;;;;;;18.00;99.90;;;;;;5126307;27;20446;-69
2022/04/23 08:53:31;;;;;;;;;;;18.10;99.90;;;;;;5125047;27;20038;-68
2022/04/23 08:55:59;;;;;;;;;;;18.10;99.90;;;;;;5122191;27;19923;-69
2022/04/23 08:58:25;;;;;;;;;;;18.10;99.90;;;;;;5109226;28;19988;-68
2022/04/23 09:00:53;;;;;;;;;;;18.40;99.90;;;;;;5122121;27;19932;-68
2022/04/23 09:03:20;;;;;;;;;;;18.60;99.90;;;;;;5121765;27;19931;-70
2022/04/23 09:05:51;;;;;;;;;;;18.80;99.90;;;;;;5122887;27;20000;-68
2022/04/23 09:08:17;;;;;;;;;;;18.90;99.90;;;;;;5126330;27;19968;-69
2022/04/23 09:10:44;;;;;;;;;;;19.00;99.90;;;;;;5121351;27;19923;-69
2022/04/23 09:13:11;;;;;;;;;;;19.10;99.90;;;;;;5126486;27;20014;-70
2022/04/23 09:24:09;;;;;;;;;;;19.60;99.90;;;;;;5123896;27;19946;-71
2022/04/23 09:26:35;;;;;;;;;;;19.90;99.90;;;;;;5108461;27;19946;-69
2022/04/23 09:29:12;;;;;;;;;;;20.00;99.90;;;;;;5120349;27;19995;-70
2022/04/23 09:31:38;;;;;;;;;;;20.00;99.90;;;;;;5117834;27;19976;-70
2022/04/23 09:34:14;;;;;;;;;;;20.10;99.90;;;;;;5120490;27;19928;-69
2022/04/23 09:36:52;;;;;;;;;;;20.20;99.90;;;;;;5121581;27;20378;-69
2022/04/23 09:39:31;;;;;;;;;;;20.40;99.90;;;;;;5125257;27;19968;-69
2022/04/23 09:42:14;;;;;;;;;;;20.60;99.90;;;;;;5122703;27;20015;-69
2022/04/23 09:44:40;;;;;;;;;;;20.60;99.90;;;;;;5119565;27;20033;-69
2022/04/23 09:47:07;;;;;;;;;;;20.50;99.90;;;;;;5125014;27;20401;-70
2022/04/23 09:49:35;;;;;;;;;;;20.50;99.90;;;;;;5119150;27;20024;-70
2022/04/23 09:52:03;;;;;;;;;;;20.30;99.90;;;;;;5124606;27;20461;-69
2022/04/23 09:54:31;;;;;;;;;;;20.30;99.90;;;;;;5120039;27;20010;-69
2022/04/23 09:56:57;;;;;;;;;;;20.20;99.90;;;;;;5122328;27;19938;-70
2022/04/23 09:59:24;;;;;;;;;;;20.40;99.90;;;;;;5122806;27;19959;-69
2022/04/23 10:01:51;;;;;;;;;;;20.80;99.90;;;;;;5124108;27;19951;-70
2022/04/23 10:04:19;;;;;;;;;;;21.10;99.90;;;;;;5119939;27;20433;-69
2022/04/23 10:06:49;;;;;;;;;;;21.20;99.90;;;;;;5121655;27;19927;-69
2022/04/23 10:09:18;;;;;;;;;;;21.30;99.90;;;;;;5129115;27;19936;-70
2022/04/23 10:11:46;;;;;;;;;;;21.50;99.90;;;;;;5134128;27;19924;-70
2022/04/23 10:14:18;;;;;;;;;;;21.60;99.90;;;;;;5122586;27;20007;-69
2022/04/23 10:16:45;;;;;;;;;;;21.80;99.90;;;;;;5125475;27;19923;-69
2022/04/23 10:19:12;;;;;;;;;;;21.90;99.90;;;;;;5092730;27;21992;-70
2022/04/23 10:21:41;;;;;;;;;;;21.90;99.90;;;;;;5124327;27;19931;-70
2022/04/23 10:24:13;;;;;;;;;;;21.80;99.90;;;;;;5118630;27;19927;-69
2022/04/23 10:26:44;;;;;;;;;;;21.90;99.90;;;;;;5115800;27;19923;-69
2022/04/23 10:29:11;;;;;;;;;;;22.10;99.90;;;;;;5115995;27;19973;-70
2022/04/23 10:31:38;;;;;;;;;;;22.00;99.90;;;;;;5123364;27;19995;-70
2022/04/23 10:34:05;;;;;;;;;;;22.10;99.90;;;;;;5117629;27;19923;-69
2022/04/23 10:36:31;;;;;;;;;;;22.10;99.90;;;;;;5118503;27;19923;-70
2022/04/23 10:39:16;;;;;;;;;;;21.90;99.40;;;;;;5128070;27;19931;-70
2022/04/23 10:41:44;;;;;;;;;;;21.80;99.60;;;;;;5123926;27;19934;-70
2022/04/23 10:44:12;;;;;;;;;;;21.80;99.30;;;;;;5126169;27;19960;-71
2022/04/23 10:46:45;;;;;;;;;;;21.40;99.20;;;;;;5125788;27;19930;-72
2022/04/23 10:49:14;;;;;;;;;;;21.30;99.30;;;;;;5128663;27;19942;-70
2022/04/23 10:51:50;;;;;;;;;;;21.30;99.60;;;;;;5122063;27;20273;-70
2022/04/23 10:54:19;;;;;;;;;;;21.30;99.40;;;;;;5125284;27;19923;-72
2022/04/23 10:56:51;;;;;;;;;;;21.50;99.80;;;;;;5125304;27;19999;-71
2022/04/23 10:59:34;;;;;;;;;;;21.60;99.20;;;;;;5119630;27;19935;-69
2022/04/23 11:02:06;;;;;;;;;;;21.60;98.90;;;;;;5114634;27;20001;-71
2022/04/23 11:04:32;;;;;;;;;;;21.70;99.00;;;;;;5114935;27;19927;-70
2022/04/23 11:12:30;;;;;;;;;;;21.80;98.80;;;;;;5094833;27;19919;-72
2022/04/23 11:14:57;;;;;;;;;;;22.10;97.90;;;;;;5127600;27;19927;-72
2022/04/23 11:17:25;;;;;;;;;;;22.30;97.40;;;;;;5117223;27;19976;-71
2022/04/23 11:19:52;;;;;;;;;;;22.40;97.10;;;;;;5118237;27;19935;-70
2022/04/23 11:22:19;;;;;;;;;;;22.50;97.00;;;;;;5119426;27;19935;-72
2022/04/23 11:24:47;;;;;;;;;;;22.50;97.10;;;;;;5121371;27;19949;-72
2022/04/23 11:27:23;;;;;;;;;;;22.50;97.10;;;;;;5114172;28;19948;-70
2022/04/23 11:29:52;;;;;;;;;;;22.50;96.90;;;;;;5117321;27;20030;-71
2022/04/23 11:32:25;;;;;;;;;;;22.80;96.80;;;;;;5116235;28;19996;-71
2022/04/23 11:34:55;;;;;;;;;;;22.80;96.70;;;;;;5124430;28;19927;-72
2022/04/23 11:37:28;;;;;;;;;;;22.80;96.00;;;;;;5121951;28;20337;-71
2022/04/23 11:40:03;;;;;;;;;;;22.80;96.50;;;;;;5117652;28;20311;-73
2022/04/23 11:42:35;;;;;;;;;;;22.70;95.70;;;;;;5124586;28;19928;-68
2022/04/23 11:45:04;;;;;;;;;;;22.60;96.20;;;;;;5121982;28;19987;-70
2022/04/23 11:47:30;;;;;;;;;;;22.60;96.00;;;;;;5109629;28;20003;-69
2022/04/23 11:50:07;;;;;;;;;;;22.70;95.70;;;;;;5126198;28;20067;-71
2022/04/23 11:52:34;;;;;;;;;;;23.00;95.50;;;;;;5109627;28;20416;-71
2022/04/23 11:55:01;;;;;;;;;;;23.40;95.70;;;;;;5121602;28;19952;-72
2022/04/23 11:57:28;;;;;;;;;;;23.60;95.60;;;;;;5122401;28;19927;-72
2022/04/23 12:00:00;;;;;;;;;;;23.70;94.80;;;;;;5114802;28;20027;-69
2022/04/23 12:02:28;;;;;;;;;;;23.70;94.00;;;;;;5122762;28;19979;-69
2022/04/23 12:04:55;;;;;;;;;;;23.30;93.90;;;;;;5110921;28;19964;-69
2022/04/23 12:07:24;;;;;;;;;;;23.10;94.80;;;;;;5118644;28;19968;-71
2022/04/23 12:09:51;;;;;;;;;;;23.20;94.00;;;;;;5118335;28;19931;-71
2022/04/23 12:12:19;;;;;;;;;;;23.40;94.00;;;;;;5114961;28;19924;-71
2022/04/23 12:14:46;;;;;;;;;;;23.40;93.70;;;;;;5116512;28;20269;-69
2022/04/23 12:17:20;;;;;;;;;;;23.00;93.70;;;;;;5121692;28;19963;-71
2022/04/23 12:19:48;;;;;;;;;;;22.90;94.80;;;;;;5124695;28;19935;-71
2022/04/23 12:22:22;;;;;;;;;;;22.90;94.00;;;;;;5118188;28;19923;-69
2022/04/23 12:24:48;;;;;;;;;;;22.90;95.10;;;;;;5119213;28;19976;-70
2022/04/23 12:27:17;;;;;;;;;;;23.00;94.20;;;;;;5122905;28;19923;-70
2022/04/23 12:40:51;;;;;;;;;;;22.60;93.80;;;;;;5126522;27;20056;-71
2022/04/23 12:43:25;;;;;;;;;;;22.60;93.40;;;;;;5121539;27;19950;-74
2022/04/23 12:46:05;;;;;;;;;;;22.60;93.50;;;;;;5119626;27;20375;-73
2022/04/23 12:48:32;;;;;;;;;;;22.90;93.70;;;;;;5114177;27;19957;-73
2022/04/23 12:51:07;;;;;;;;;;;23.20;93.00;;;;;;5122724;27;20318;-73
2022/04/23 12:53:34;;;;;;;;;;;23.10;93.30;;;;;;5120860;27;19927;-72
2022/04/23 12:56:02;;;;;;;;;;;23.30;93.30;;;;;;5126926;27;19929;-72
2022/04/23 12:58:30;;;;;;;;;;;23.40;93.70;;;;;;5116554;27;20309;-73
2022/04/23 13:00:56;;;;;;;;;;;23.30;93.60;;;;;;5120985;27;20514;-72
2022/04/23 13:03:30;;;;;;;;;;;23.40;93.60;;;;;;5125024;27;19964;-72
2022/04/23 13:05:57;;;;;;;;;;;23.60;93.50;;;;;;5126132;27;19938;-72
2022/04/23 13:13:54;;;;;;;;;;;23.50;93.00;;;;;;5117721;27;20334;-73
2022/04/23 13:16:22;;;;;;;;;;;23.10;93.30;;;;;;5125028;27;19927;-73
2022/04/23 13:18:48;;;;;;;;;;;22.80;92.70;;;;;;5126968;27;19987;-74
2022/04/23 13:21:15;;;;;;;;;;;22.90;92.90;;;;;;5118262;27;19931;-73
2022/04/23 13:23:43;;;;;;;;;;;23.10;92.80;;;;;;5121412;27;19923;-73
2022/04/23 13:26:09;;;;;;;;;;;23.20;93.00;;;;;;5117073;27;19935;-73
2022/04/23 13:28:36;;;;;;;;;;;23.50;92.20;;;;;;5127099;27;19935;-72
2022/04/23 13:31:03;;;;;;;;;;;23.30;92.30;;;;;;5113876;27;20352;-74
2022/04/23 13:33:29;;;;;;;;;;;23.10;92.50;;;;;;5113951;27;20270;-74
2022/04/23 13:35:56;;;;;;;;;;;23.10;92.40;;;;;;5123912;27;19952;-73
2022/04/23 13:38:22;;;;;;;;;;;23.00;92.00;;;;;;5119445;27;19932;-73
2022/04/23 13:40:50;;;;;;;;;;;22.90;92.20;;;;;;5115496;27;19952;-73
2022/04/23 13:43:17;;;;;;;;;;;22.80;92.30;;;;;;5121258;27;20611;-74
2022/04/23 13:45:44;;;;;;;;;;;23.10;92.50;;;;;;5115372;27;19928;-73
2022/04/23 13:48:10;;;;;;;;;;;23.50;92.30;;;;;;5125913;27;20027;-71
2022/04/23 13:50:37;;;;;;;;;;;23.60;92.30;;;;;;5116804;27;20581;-72
2022/04/23 13:53:03;;;;;;;;;;;23.80;91.80;;;;;;5126182;27;19960;-73
2022/04/23 13:55:30;;;;;;;;;;;24.10;91.70;;;;;;5117828;27;20418;-74
2022/04/23 13:57:58;;;;;;;;;;;24.50;91.30;;;;;;5118194;27;19980;-74
2022/04/23 14:00:24;;;;;;;;;;;24.80;90.50;;;;;;5120920;27;19932;-74
2022/04/23 14:11:04;;;;;;;;;;;24.30;87.10;;;;;;5123595;27;20237;-74
2022/04/23 14:13:32;;;;;;;;;;;24.40;87.90;;;;;;5122971;27;19931;-73
2022/04/23 14:15:58;;;;;;;;;;;24.70;88.10;;;;;;5125349;27;20291;-73
2022/04/23 14:18:25;;;;;;;;;;;24.90;87.80;;;;;;5124493;27;19992;-73
2022/04/23 14:20:52;;;;;;;;;;;25.10;87.20;;;;;;5132741;27;19980;-72
2022/04/23 14:23:18;;;;;;;;;;;25.00;88.40;;;;;;5119173;27;19974;-72
2022/04/23 14:25:46;;;;;;;;;;;24.80;87.10;;;;;;5122103;27;19947;-72
2022/04/23 14:28:13;;;;;;;;;;;24.10;87.50;;;;;;5117455;27;20023;-74
2022/04/23 14:30:41;;;;;;;;;;;23.60;88.00;;;;;;5126695;27;19939;-73
2022/04/23 14:33:08;;;;;;;;;;;23.10;89.20;;;;;;5116446;27;20243;-74
2022/04/23 14:35:37;;;;;;;;;;;22.50;90.20;;;;;;5116690;27;19994;-76
2022/04/23 14:38:03;;;;;;;;;;;22.20;90.30;;;;;;5138860;22;20034;-76
2022/04/23 14:40:30;;;;;;;;;;;21.90;90.30;;;;;;5099855;28;19976;-76
2022/04/23 14:42:57;;;;;;;;;;;21.60;90.80;;;;;;5103500;28;19928;-77
2022/04/23 14:45:28;;;;;;;;;;;21.50;90.80;;;;;;5102568;28;19986;-77
2022/04/23 14:47:56;;;;;;;;;;;21.40;90.70;;;;;;5103513;28;20093;-77
2022/04/23 14:50:22;;;;;;;;;;;21.40;90.90;;;;;;5100191;28;19932;-76
2022/04/23 14:55:33;;;;;;;;;;;21.30;90.40;;;;;;5098360;28;20564;-78
2022/04/23 14:57:59;;;;;;;;;;;21.10;90.40;;;;;;5100278;28;20473;-76
2022/04/23 15:00:26;;;;;;;;;;;20.90;90.70;;;;;;5097850;28;20386;-76
2022/04/23 15:02:54;;;;;;;;;;;20.70;90.50;;;;;;5101787;28;20429;-75
2022/04/23 15:05:23;;;;;;;;;;;20.30;91.00;;;;;;5099785;28;19923;-77
2022/04/23 15:07:50;;;;;;;;;;;20.00;91.10;;;;;;5102669;28;19923;-77
2022/04/23 15:10:16;;;;;;;;;;;19.80;91.50;;;;;;5099061;28;20035;-78
2022/04/23 15:12:44;;;;;;;;;;;19.60;91.30;;;;;;5106735;28;19924;-76